sensor_id;sensor_type;location;lat;lon;timestamp;pressure;altitude;pressure_sealevel;temperature;humidity
64095;BME280;50353;51.420;5.682;2022-08-19T00:01:39;101092.38;;;19.87;73.86
64095;BME280;50353;51.420;5.682;2022-08-19T00:04:10;101090.09;;;19.92;73.95
64095;BME280;50353;51.420;5.682;2022-08-19T00:06:38;101083.94;;;19.82;73.92
64095;BME280;50353;51.420;5.682;2022-08-19T00:09:06;101074.38;;;19.60;74.86
64095;BME280;50353;51.420;5.682;2022-08-19T00:11:31;101080.25;;;19.83;74.54
64095;BME280;50353;51.420;5.682;2022-08-19T00:13:57;101083.13;;;19.62;75.53
64095;BME280;50353;51.420;5.682;2022-08-19T00:16:24;101086.44;;;19.93;74.20
64095;BME280;50353;51.420;5.682;2022-08-19T00:18:49;101083.66;;;20.13;73.53
64095;BME280;50353;51.420;5.682;2022-08-19T00:21:15;101087.19;;;20.14;72.76
64095;BME280;50353;51.420;5.682;2022-08-19T00:23:41;101084.19;;;19.79;73.64
64095;BME280;50353;51.420;5.682;2022-08-19T00:26:09;101082.72;;;19.57;74.61
64095;BME280;50353;51.420;5.682;2022-08-19T00:28:34;101085.31;;;19.29;76.14
64095;BME280;50353;51.420;5.682;2022-08-19T00:31:01;101083.22;;;19.13;76.78
64095;BME280;50353;51.420;5.682;2022-08-19T00:33:28;101084.38;;;19.01;76.84
64095;BME280;50353;51.420;5.682;2022-08-19T00:35:55;101085.00;;;19.42;75.06
64095;BME280;50353;51.420;5.682;2022-08-19T00:38:20;101083.66;;;19.66;74.28
64095;BME280;50353;51.420;5.682;2022-08-19T00:40:48;101077.78;;;19.62;74.76
64095;BME280;50353;51.420;5.682;2022-08-19T00:43:19;101073.25;;;19.63;73.75
64095;BME280;50353;51.420;5.682;2022-08-19T00:45:45;101075.34;;;19.59;74.80
64095;BME280;50353;51.420;5.682;2022-08-19T00:48:10;101076.44;;;19.29;75.15
64095;BME280;50353;51.420;5.682;2022-08-19T00:50:37;101066.28;;;19.32;74.49
64095;BME280;50353;51.420;5.682;2022-08-19T00:53:06;101078.13;;;19.30;74.51
64095;BME280;50353;51.420;5.682;2022-08-19T00:55:32;101074.03;;;19.25;74.71
64095;BME280;50353;51.420;5.682;2022-08-19T00:58:00;101064.69;;;19.39;73.86
64095;BME280;50353;51.420;5.682;2022-08-19T01:00:28;101075.59;;;19.08;74.49
64095;BME280;50353;51.420;5.682;2022-08-19T01:02:54;101073.50;;;19.12;75.20
64095;BME280;50353;51.420;5.682;2022-08-19T01:05:22;101075.06;;;19.05;75.68
64095;BME280;50353;51.420;5.682;2022-08-19T01:07:49;101071.66;;;18.93;75.29
64095;BME280;50353;51.420;5.682;2022-08-19T01:10:18;101082.63;;;18.70;75.69
64095;BME280;50353;51.420;5.682;2022-08-19T01:12:45;101078.28;;;18.99;75.99
64095;BME280;50353;51.420;5.682;2022-08-19T01:15:13;101085.50;;;18.88;75.60
64095;BME280;50353;51.420;5.682;2022-08-19T01:17:40;101085.28;;;18.70;76.28
64095;BME280;50353;51.420;5.682;2022-08-19T01:20:10;101082.91;;;18.57;76.70
64095;BME280;50353;51.420;5.682;2022-08-19T01:22:46;101085.03;;;18.83;75.67
64095;BME280;50353;51.420;5.682;2022-08-19T01:25:18;101066.69;;;18.79;76.83
64095;BME280;50353;51.420;5.682;2022-08-19T01:27:46;101073.16;;;18.66;76.49
64095;BME280;50353;51.420;5.682;2022-08-19T01:30:16;101082.66;;;19.00;75.55
64095;BME280;50353;51.420;5.682;2022-08-19T01:32:42;101095.16;;;18.50;75.74
64095;BME280;50353;51.420;5.682;2022-08-19T01:35:09;101087.56;;;18.85;74.40
64095;BME280;50353;51.420;5.682;2022-08-19T01:37:50;101102.09;;;18.82;77.17
64095;BME280;50353;51.420;5.682;2022-08-19T01:40:18;101102.06;;;18.63;78.80
64095;BME280;50353;51.420;5.682;2022-08-19T01:42:46;101098.13;;;18.86;76.73
64095;BME280;50353;51.420;5.682;2022-08-19T01:45:13;101094.75;;;18.74;75.86
64095;BME280;50353;51.420;5.682;2022-08-19T01:47:38;101099.09;;;18.66;76.41
64095;BME280;50353;51.420;5.682;2022-08-19T01:50:06;101098.47;;;18.93;75.11
64095;BME280;50353;51.420;5.682;2022-08-19T01:52:31;101098.03;;;18.98;75.24
64095;BME280;50353;51.420;5.682;2022-08-19T01:54:57;101102.81;;;19.04;74.41
64095;BME280;50353;51.420;5.682;2022-08-19T01:57:22;101101.72;;;18.97;74.24
64095;BME280;50353;51.420;5.682;2022-08-19T01:59:47;101111.97;;;18.82;75.16
64095;BME280;50353;51.420;5.682;2022-08-19T02:02:13;101113.56;;;18.94;74.32
64095;BME280;50353;51.420;5.682;2022-08-19T02:04:39;101121.28;;;18.97;74.02
64095;BME280;50353;51.420;5.682;2022-08-19T02:07:05;101121.41;;;18.76;74.28
64095;BME280;50353;51.420;5.682;2022-08-19T02:09:32;101119.59;;;18.96;73.76
64095;BME280;50353;51.420;5.682;2022-08-19T02:11:57;101117.84;;;18.56;75.39
64095;BME280;50353;51.420;5.682;2022-08-19T02:14:23;101110.66;;;18.66;74.72
64095;BME280;50353;51.420;5.682;2022-08-19T02:16:48;101115.25;;;18.45;76.45
64095;BME280;50353;51.420;5.682;2022-08-19T02:19:14;101109.09;;;18.64;74.97
64095;BME280;50353;51.420;5.682;2022-08-19T02:21:39;101100.38;;;18.11;75.99
64095;BME280;50353;51.420;5.682;2022-08-19T02:24:05;101106.16;;;17.85;76.43
64095;BME280;50353;51.420;5.682;2022-08-19T02:26:31;101112.84;;;18.32;75.52
64095;BME280;50353;51.420;5.682;2022-08-19T02:28:57;101109.22;;;18.52;76.11
64095;BME280;50353;51.420;5.682;2022-08-19T02:31:24;101108.38;;;18.42;75.67
64095;BME280;50353;51.420;5.682;2022-08-19T02:33:50;101116.16;;;18.14;76.23
64095;BME280;50353;51.420;5.682;2022-08-19T02:36:17;101113.22;;;18.17;76.84
64095;BME280;50353;51.420;5.682;2022-08-19T02:38:44;101113.22;;;18.17;76.77
64095;BME280;50353;51.420;5.682;2022-08-19T02:41:15;101126.91;;;18.24;76.71
64095;BME280;50353;51.420;5.682;2022-08-19T02:43:41;101122.28;;;18.26;77.29
64095;BME280;50353;51.420;5.682;2022-08-19T02:46:35;101118.19;;;18.32;77.81
64095;BME280;50353;51.420;5.682;2022-08-19T02:49:03;101116.34;;;18.32;78.20
64095;BME280;50353;51.420;5.682;2022-08-19T02:51:36;101126.69;;;18.47;78.12
64095;BME280;50353;51.420;5.682;2022-08-19T02:54:04;101124.59;;;18.50;77.12
64095;BME280;50353;51.420;5.682;2022-08-19T02:56:30;101121.63;;;18.44;76.72
64095;BME280;50353;51.420;5.682;2022-08-19T02:58:56;101119.78;;;18.54;75.39
64095;BME280;50353;51.420;5.682;2022-08-19T03:01:29;101127.16;;;18.21;75.88
64095;BME280;50353;51.420;5.682;2022-08-19T03:03:56;101117.13;;;17.82;76.88
64095;BME280;50353;51.420;5.682;2022-08-19T03:06:22;101121.69;;;17.70;77.26
64095;BME280;50353;51.420;5.682;2022-08-19T03:08:49;101118.69;;;17.85;77.53
64095;BME280;50353;51.420;5.682;2022-08-19T03:11:20;101129.19;;;17.98;77.25
64095;BME280;50353;51.420;5.682;2022-08-19T03:13:46;101136.31;;;18.18;76.87
64095;BME280;50353;51.420;5.682;2022-08-19T03:16:14;101131.13;;;18.27;75.77
64095;BME280;50353;51.420;5.682;2022-08-19T03:18:39;101124.38;;;17.92;77.48
64095;BME280;50353;51.420;5.682;2022-08-19T03:21:05;101131.72;;;17.99;77.74
64095;BME280;50353;51.420;5.682;2022-08-19T03:23:30;101132.31;;;18.03;76.13
64095;BME280;50353;51.420;5.682;2022-08-19T03:25:56;101133.19;;;17.82;77.08
64095;BME280;50353;51.420;5.682;2022-08-19T03:28:21;101134.72;;;18.06;76.77
64095;BME280;50353;51.420;5.682;2022-08-19T03:31:04;101125.72;;;17.86;77.18
64095;BME280;50353;51.420;5.682;2022-08-19T03:33:32;101137.94;;;17.79;77.60
64095;BME280;50353;51.420;5.682;2022-08-19T03:36:07;101127.03;;;17.70;77.14
64095;BME280;50353;51.420;5.682;2022-08-19T03:38:35;101129.91;;;17.79;76.99
64095;BME280;50353;51.420;5.682;2022-08-19T03:41:06;101134.75;;;17.85;76.43
64095;BME280;50353;51.420;5.682;2022-08-19T03:43:34;101125.13;;;18.03;75.93
64095;BME280;50353;51.420;5.682;2022-08-19T03:46:06;101116.72;;;17.87;75.29
64095;BME280;50353;51.420;5.682;2022-08-19T03:48:32;101129.19;;;17.98;75.73
64095;BME280;50353;51.420;5.682;2022-08-19T03:50:58;101128.00;;;17.90;75.99
64095;BME280;50353;51.420;5.682;2022-08-19T03:53:25;101128.28;;;17.87;76.99
64095;BME280;50353;51.420;5.682;2022-08-19T03:55:51;101132.41;;;17.92;76.61
64095;BME280;50353;51.420;5.682;2022-08-19T03:58:16;101136.81;;;17.81;76.72
64095;BME280;50353;51.420;5.682;2022-08-19T04:00:42;101142.03;;;17.83;76.22
64095;BME280;50353;51.420;5.682;2022-08-19T04:03:08;101131.75;;;17.78;76.19
64095;BME280;50353;51.420;5.682;2022-08-19T04:05:33;101134.38;;;17.68;76.61
64095;BME280;50353;51.420;5.682;2022-08-19T04:07:59;101130.56;;;17.71;76.37
64095;BME280;50353;51.420;5.682;2022-08-19T04:10:26;101126.59;;;17.65;76.51
64095;BME280;50353;51.420;5.682;2022-08-19T04:12:51;101130.50;;;17.82;76.43
64095;BME280;50353;51.420;5.682;2022-08-19T04:15:17;101126.84;;;17.83;75.64
64095;BME280;50353;51.420;5.682;2022-08-19T04:17:42;101120.09;;;17.37;77.04
64095;BME280;50353;51.420;5.682;2022-08-19T04:20:07;101121.41;;;17.43;77.27
64095;BME280;50353;51.420;5.682;2022-08-19T04:22:33;101125.94;;;17.73;76.48
64095;BME280;50353;51.420;5.682;2022-08-19T04:24:58;101119.66;;;17.63;77.94
64095;BME280;50353;51.420;5.682;2022-08-19T04:27:23;101111.00;;;17.70;77.81
64095;BME280;50353;51.420;5.682;2022-08-19T04:29:49;101108.81;;;17.33;78.04
64095;BME280;50353;51.420;5.682;2022-08-19T04:32:14;101114.41;;;17.51;77.24
64095;BME280;50353;51.420;5.682;2022-08-19T04:34:40;101104.25;;;17.45;78.00
64095;BME280;50353;51.420;5.682;2022-08-19T04:37:08;101107.72;;;17.36;77.78
64095;BME280;50353;51.420;5.682;2022-08-19T04:39:38;101104.19;;;17.56;76.82
64095;BME280;50353;51.420;5.682;2022-08-19T04:42:22;101103.78;;;17.40;78.26
64095;BME280;50353;51.420;5.682;2022-08-19T04:45:07;101115.06;;;17.44;78.15
64095;BME280;50353;51.420;5.682;2022-08-19T04:47:38;101116.59;;;17.04;80.45
64095;BME280;50353;51.420;5.682;2022-08-19T04:50:05;101114.00;;;17.14;78.88
64095;BME280;50353;51.420;5.682;2022-08-19T04:52:31;101126.72;;;17.21;78.90
64095;BME280;50353;51.420;5.682;2022-08-19T04:54:57;101118.56;;;17.23;78.13
64095;BME280;50353;51.420;5.682;2022-08-19T04:57:23;101121.44;;;17.10;78.42
64095;BME280;50353;51.420;5.682;2022-08-19T04:59:48;101126.22;;;16.95;80.55
64095;BME280;50353;51.420;5.682;2022-08-19T05:02:14;101137.50;;;16.99;81.22
64095;BME280;50353;51.420;5.682;2022-08-19T05:04:39;101136.28;;;17.03;80.84
64095;BME280;50353;51.420;5.682;2022-08-19T05:07:06;101130.03;;;17.14;80.16
64095;BME280;50353;51.420;5.682;2022-08-19T05:09:32;101143.94;;;16.96;80.54
64095;BME280;50353;51.420;5.682;2022-08-19T05:11:57;101146.69;;;17.06;81.92
64095;BME280;50353;51.420;5.682;2022-08-19T05:14:23;101140.94;;;17.22;81.10
64095;BME280;50353;51.420;5.682;2022-08-19T05:16:48;101139.03;;;17.13;80.34
64095;BME280;50353;51.420;5.682;2022-08-19T05:19:14;101149.72;;;17.13;81.28
64095;BME280;50353;51.420;5.682;2022-08-19T05:21:59;101156.19;;;16.87;83.00
64095;BME280;50353;51.420;5.682;2022-08-19T05:24:43;101166.50;;;17.36;81.48
64095;BME280;50353;51.420;5.682;2022-08-19T05:27:08;101166.44;;;17.15;82.49
64095;BME280;50353;51.420;5.682;2022-08-19T05:29:34;101165.47;;;17.16;82.97
64095;BME280;50353;51.420;5.682;2022-08-19T05:32:01;101165.75;;;17.34;83.33
64095;BME280;50353;51.420;5.682;2022-08-19T05:34:27;101169.00;;;17.70;82.64
64095;BME280;50353;51.420;5.682;2022-08-19T05:36:57;101166.38;;;17.58;83.01
64095;BME280;50353;51.420;5.682;2022-08-19T05:39:26;101163.69;;;17.58;83.98
64095;BME280;50353;51.420;5.682;2022-08-19T05:41:57;101170.69;;;17.92;83.43
64095;BME280;50353;51.420;5.682;2022-08-19T05:44:25;101166.22;;;17.81;85.26
64095;BME280;50353;51.420;5.682;2022-08-19T05:46:51;101171.34;;;18.05;84.24
64095;BME280;50353;51.420;5.682;2022-08-19T05:49:21;101168.63;;;17.96;85.76
64095;BME280;50353;51.420;5.682;2022-08-19T05:51:47;101170.78;;;18.12;85.76
64095;BME280;50353;51.420;5.682;2022-08-19T05:54:12;101169.38;;;18.48;84.47
64095;BME280;50353;51.420;5.682;2022-08-19T05:56:39;101168.19;;;18.72;82.77
64095;BME280;50353;51.420;5.682;2022-08-19T05:59:07;101168.00;;;18.64;84.35
64095;BME280;50353;51.420;5.682;2022-08-19T06:01:36;101165.25;;;18.85;82.93
64095;BME280;50353;51.420;5.682;2022-08-19T06:04:03;101170.09;;;19.11;79.32
64095;BME280;50353;51.420;5.682;2022-08-19T06:06:28;101164.88;;;19.29;75.23
64095;BME280;50353;51.420;5.682;2022-08-19T06:08:53;101166.41;;;19.41;77.59
64095;BME280;50353;51.420;5.682;2022-08-19T06:11:32;101170.66;;;19.34;77.17
64095;BME280;50353;51.420;5.682;2022-08-19T06:14:01;101162.78;;;19.32;78.12
64095;BME280;50353;51.420;5.682;2022-08-19T06:16:27;101166.13;;;19.44;73.51
64095;BME280;50353;51.420;5.682;2022-08-19T06:18:54;101166.84;;;19.46;72.45
64095;BME280;50353;51.420;5.682;2022-08-19T06:21:23;101160.78;;;19.54;76.09
64095;BME280;50353;51.420;5.682;2022-08-19T06:23:49;101163.75;;;19.61;75.12
64095;BME280;50353;51.420;5.682;2022-08-19T06:26:16;101166.09;;;19.73;74.61
64095;BME280;50353;51.420;5.682;2022-08-19T06:28:42;101165.97;;;19.85;76.30
64095;BME280;50353;51.420;5.682;2022-08-19T06:31:18;101167.22;;;19.90;77.15
64095;BME280;50353;51.420;5.682;2022-08-19T06:33:46;101158.19;;;19.72;74.35
64095;BME280;50353;51.420;5.682;2022-08-19T06:36:27;101151.13;;;19.71;76.40
64095;BME280;50353;51.420;5.682;2022-08-19T06:38:58;101156.34;;;19.82;73.22
64095;BME280;50353;51.420;5.682;2022-08-19T06:41:24;101159.84;;;20.02;73.65
64095;BME280;50353;51.420;5.682;2022-08-19T06:43:50;101157.38;;;20.19;74.38
64095;BME280;50353;51.420;5.682;2022-08-19T06:46:16;101160.06;;;20.19;70.85
64095;BME280;50353;51.420;5.682;2022-08-19T06:48:42;101160.81;;;20.39;76.70
64095;BME280;50353;51.420;5.682;2022-08-19T06:51:08;101159.28;;;20.36;74.66
64095;BME280;50353;51.420;5.682;2022-08-19T06:53:34;101167.94;;;20.58;74.17
64095;BME280;50353;51.420;5.682;2022-08-19T06:55:59;101168.06;;;20.29;79.06
64095;BME280;50353;51.420;5.682;2022-08-19T06:58:30;101170.78;;;20.56;78.04
64095;BME280;50353;51.420;5.682;2022-08-19T07:01:01;101165.38;;;20.84;72.46
64095;BME280;50353;51.420;5.682;2022-08-19T07:03:32;101161.63;;;20.95;71.19
64095;BME280;50353;51.420;5.682;2022-08-19T07:06:02;101154.72;;;21.28;70.75
64095;BME280;50353;51.420;5.682;2022-08-19T07:08:28;101160.78;;;21.31;70.38
64095;BME280;50353;51.420;5.682;2022-08-19T07:10:53;101161.69;;;21.21;74.81
64095;BME280;50353;51.420;5.682;2022-08-19T07:13:19;101164.63;;;21.46;71.87
64095;BME280;50353;51.420;5.682;2022-08-19T07:15:46;101166.28;;;21.47;68.73
64095;BME280;50353;51.420;5.682;2022-08-19T07:18:12;101169.84;;;21.66;68.22
64095;BME280;50353;51.420;5.682;2022-08-19T07:20:37;101175.28;;;21.74;70.93
64095;BME280;50353;51.420;5.682;2022-08-19T07:23:04;101176.59;;;21.70;71.37
64095;BME280;50353;51.420;5.682;2022-08-19T07:25:29;101177.06;;;21.91;66.83
64095;BME280;50353;51.420;5.682;2022-08-19T07:27:54;101182.72;;;21.80;73.09
64095;BME280;50353;51.420;5.682;2022-08-19T07:30:20;101175.31;;;22.08;73.82
64095;BME280;50353;51.420;5.682;2022-08-19T07:32:47;101182.75;;;22.15;73.27
64095;BME280;50353;51.420;5.682;2022-08-19T07:35:13;101185.31;;;21.90;71.53
64095;BME280;50353;51.420;5.682;2022-08-19T07:37:38;101188.22;;;21.97;69.47
64095;BME280;50353;51.420;5.682;2022-08-19T07:40:09;101188.31;;;22.13;71.70
64095;BME280;50353;51.420;5.682;2022-08-19T07:42:34;101196.22;;;22.41;70.56
64095;BME280;50353;51.420;5.682;2022-08-19T07:44:59;101192.59;;;22.67;71.00
64095;BME280;50353;51.420;5.682;2022-08-19T07:47:25;101189.56;;;22.61;71.37
64095;BME280;50353;51.420;5.682;2022-08-19T07:49:51;101193.00;;;22.88;68.10
64095;BME280;50353;51.420;5.682;2022-08-19T07:52:16;101191.84;;;22.99;66.86
64095;BME280;50353;51.420;5.682;2022-08-19T07:54:42;101202.47;;;23.09;69.32
64095;BME280;50353;51.420;5.682;2022-08-19T07:57:07;101196.47;;;23.40;68.54
64095;BME280;50353;51.420;5.682;2022-08-19T07:59:33;101199.84;;;23.42;67.77
64095;BME280;50353;51.420;5.682;2022-08-19T08:02:00;101199.19;;;23.48;68.03
64095;BME280;50353;51.420;5.682;2022-08-19T08:04:26;101201.84;;;24.06;67.31
64095;BME280;50353;51.420;5.682;2022-08-19T08:07:11;101210.13;;;23.79;66.64
64095;BME280;50353;51.420;5.682;2022-08-19T08:09:55;101208.94;;;24.07;65.49
64095;BME280;50353;51.420;5.682;2022-08-19T08:12:40;101200.16;;;23.96;65.67
64095;BME280;50353;51.420;5.682;2022-08-19T08:15:10;101209.50;;;24.42;64.63
64095;BME280;50353;51.420;5.682;2022-08-19T08:17:37;101217.44;;;24.43;62.88
64095;BME280;50353;51.420;5.682;2022-08-19T08:20:05;101215.63;;;24.27;63.69
64095;BME280;50353;51.420;5.682;2022-08-19T08:22:34;101218.19;;;24.60;63.76
64095;BME280;50353;51.420;5.682;2022-08-19T08:25:20;101222.44;;;24.55;62.44
64095;BME280;50353;51.420;5.682;2022-08-19T08:27:48;101219.84;;;24.78;62.77
64095;BME280;50353;51.420;5.682;2022-08-19T08:30:19;101220.03;;;24.76;62.46
64095;BME280;50353;51.420;5.682;2022-08-19T08:32:45;101239.03;;;24.91;60.75
64095;BME280;50353;51.420;5.682;2022-08-19T08:35:13;101241.91;;;25.21;60.79
64095;BME280;50353;51.420;5.682;2022-08-19T08:37:39;101236.81;;;25.18;60.07
64095;BME280;50353;51.420;5.682;2022-08-19T08:40:08;101244.03;;;25.03;60.22
64095;BME280;50353;51.420;5.682;2022-08-19T08:42:43;101242.53;;;25.00;59.77
64095;BME280;50353;51.420;5.682;2022-08-19T08:45:13;101237.63;;;25.27;59.33
64095;BME280;50353;51.420;5.682;2022-08-19T08:47:44;101234.56;;;25.30;60.12
64095;BME280;50353;51.420;5.682;2022-08-19T08:50:18;101247.28;;;24.67;59.37
64095;BME280;50353;51.420;5.682;2022-08-19T08:52:46;101239.97;;;24.75;59.05
64095;BME280;50353;51.420;5.682;2022-08-19T08:55:15;101242.97;;;25.12;60.64
64095;BME280;50353;51.420;5.682;2022-08-19T08:57:53;101222.09;;;24.97;60.83
64095;BME280;50353;51.420;5.682;2022-08-19T09:00:26;101239.91;;;25.15;58.09
64095;BME280;50353;51.420;5.682;2022-08-19T09:02:57;101236.47;;;25.53;58.42
64095;BME280;50353;51.420;5.682;2022-08-19T09:05:26;101228.84;;;25.71;58.82
64095;BME280;50353;51.420;5.682;2022-08-19T09:08:00;101234.28;;;25.86;57.73
64095;BME280;50353;51.420;5.682;2022-08-19T09:10:35;101227.41;;;25.98;56.88
64095;BME280;50353;51.420;5.682;2022-08-19T09:15:36;101233.34;;;26.17;57.04
64095;BME280;50353;51.420;5.682;2022-08-19T09:18:04;101233.88;;;26.57;56.25
64095;BME280;50353;51.420;5.682;2022-08-19T09:20:31;101230.63;;;26.62;55.26
64095;BME280;50353;51.420;5.682;2022-08-19T09:22:57;101236.88;;;26.77;54.93
64095;BME280;50353;51.420;5.682;2022-08-19T09:25:24;101241.00;;;25.75;56.45
64095;BME280;50353;51.420;5.682;2022-08-19T09:27:51;101237.94;;;25.32;56.09
64095;BME280;50353;51.420;5.682;2022-08-19T09:30:21;101232.69;;;26.30;54.58
64095;BME280;50353;51.420;5.682;2022-08-19T09:32:48;101230.44;;;26.48;53.22
64095;BME280;50353;51.420;5.682;2022-08-19T09:35:14;101227.91;;;26.62;54.74
64095;BME280;50353;51.420;5.682;2022-08-19T09:37:41;101223.56;;;26.97;54.24
64095;BME280;50353;51.420;5.682;2022-08-19T09:40:07;101238.13;;;27.33;52.22
64095;BME280;50353;51.420;5.682;2022-08-19T09:42:32;101240.13;;;27.24;50.44
64095;BME280;50353;51.420;5.682;2022-08-19T09:44:59;101238.63;;;27.37;51.65
64095;BME280;50353;51.420;5.682;2022-08-19T09:47:24;101233.09;;;26.93;54.17
64095;BME280;50353;51.420;5.682;2022-08-19T09:49:49;101233.34;;;27.35;51.40
64095;BME280;50353;51.420;5.682;2022-08-19T09:52:15;101235.38;;;27.48;51.97
64095;BME280;50353;51.420;5.682;2022-08-19T09:54:41;101243.72;;;26.73;52.19
64095;BME280;50353;51.420;5.682;2022-08-19T09:57:07;101241.34;;;26.85;51.58
64095;BME280;50353;51.420;5.682;2022-08-19T09:59:32;101236.13;;;27.63;53.38
64095;BME280;50353;51.420;5.682;2022-08-19T10:01:58;101242.81;;;27.39;49.90
64095;BME280;50353;51.420;5.682;2022-08-19T10:04:23;101249.59;;;28.00;50.58
64095;BME280;50353;51.420;5.682;2022-08-19T10:07:08;101247.47;;;27.95;50.97
64095;BME280;50353;51.420;5.682;2022-08-19T10:09:33;101247.59;;;28.09;52.46
64095;BME280;50353;51.420;5.682;2022-08-19T10:11:59;101238.16;;;28.11;48.85
64095;BME280;50353;51.420;5.682;2022-08-19T10:14:26;101246.88;;;27.50;53.01
64095;BME280;50353;51.420;5.682;2022-08-19T10:16:52;101244.19;;;27.57;53.71
64095;BME280;50353;51.420;5.682;2022-08-19T10:19:17;101242.34;;;27.57;54.58
64095;BME280;50353;51.420;5.682;2022-08-19T10:21:45;101244.00;;;28.08;50.16
64095;BME280;50353;51.420;5.682;2022-08-19T10:24:10;101244.97;;;27.29;54.53
64095;BME280;50353;51.420;5.682;2022-08-19T10:26:38;101234.41;;;28.12;53.92
64095;BME280;50353;51.420;5.682;2022-08-19T10:29:07;101251.13;;;27.59;53.05
64095;BME280;50353;51.420;5.682;2022-08-19T10:31:33;101251.53;;;27.56;56.15
64095;BME280;50353;51.420;5.682;2022-08-19T10:33:59;101244.19;;;27.13;58.45
64095;BME280;50353;51.420;5.682;2022-08-19T10:36:34;101254.94;;;26.85;55.17
64095;BME280;50353;51.420;5.682;2022-08-19T10:39:04;101259.13;;;26.58;54.06
64095;BME280;50353;51.420;5.682;2022-08-19T10:41:33;101249.31;;;25.74;57.19
64095;BME280;50353;51.420;5.682;2022-08-19T10:44:08;101253.25;;;26.54;56.80
64095;BME280;50353;51.420;5.682;2022-08-19T10:46:37;101251.50;;;26.31;56.87
64095;BME280;50353;51.420;5.682;2022-08-19T10:49:04;101252.84;;;26.57;60.73
64095;BME280;50353;51.420;5.682;2022-08-19T10:51:31;101249.03;;;26.66;61.11
64095;BME280;50353;51.420;5.682;2022-08-19T10:54:14;101251.66;;;26.45;55.87
64095;BME280;50353;51.420;5.682;2022-08-19T10:56:40;101248.06;;;25.99;57.44
64095;BME280;50353;51.420;5.682;2022-08-19T10:59:23;101256.16;;;26.38;56.65
64095;BME280;50353;51.420;5.682;2022-08-19T11:01:50;101251.72;;;26.07;56.62
64095;BME280;50353;51.420;5.682;2022-08-19T11:04:17;101243.72;;;26.73;59.56
64095;BME280;50353;51.420;5.682;2022-08-19T11:06:45;101243.25;;;27.06;57.99
64095;BME280;50353;51.420;5.682;2022-08-19T11:09:16;101244.56;;;26.74;58.22
64095;BME280;50353;51.420;5.682;2022-08-19T11:11:42;101255.75;;;26.86;54.51
64095;BME280;50353;51.420;5.682;2022-08-19T11:14:10;101247.13;;;27.19;52.54
64095;BME280;50353;51.420;5.682;2022-08-19T11:16:36;101251.22;;;27.08;55.95
64095;BME280;50353;51.420;5.682;2022-08-19T11:19:04;101245.03;;;27.79;54.17
64095;BME280;50353;51.420;5.682;2022-08-19T11:21:36;101242.03;;;27.95;52.96
64095;BME280;50353;51.420;5.682;2022-08-19T11:24:06;101235.69;;;27.38;51.62
64095;BME280;50353;51.420;5.682;2022-08-19T11:26:32;101235.66;;;27.81;54.85
64095;BME280;50353;51.420;5.682;2022-08-19T11:28:58;101242.53;;;27.56;51.69
64095;BME280;50353;51.420;5.682;2022-08-19T11:31:27;101243.00;;;27.01;53.58
64095;BME280;50353;51.420;5.682;2022-08-19T11:33:53;101238.97;;;27.12;55.09
64095;BME280;50353;51.420;5.682;2022-08-19T11:36:20;101234.44;;;27.19;57.41
64095;BME280;50353;51.420;5.682;2022-08-19T11:38:47;101242.91;;;27.09;52.84
64095;BME280;50353;51.420;5.682;2022-08-19T11:41:14;101242.69;;;27.76;55.40
64095;BME280;50353;51.420;5.682;2022-08-19T11:43:40;101241.28;;;26.78;53.00
64095;BME280;50353;51.420;5.682;2022-08-19T11:46:07;101240.69;;;27.20;52.64
64095;BME280;50353;51.420;5.682;2022-08-19T11:48:32;101223.44;;;27.71;56.37
64095;BME280;50353;51.420;5.682;2022-08-19T11:50:58;101225.31;;;27.98;53.13
64095;BME280;50353;51.420;5.682;2022-08-19T11:53:24;101226.25;;;28.47;52.45
64095;BME280;50353;51.420;5.682;2022-08-19T11:55:50;101223.63;;;27.69;54.65
64095;BME280;50353;51.420;5.682;2022-08-19T11:58:16;101223.53;;;27.84;50.38
64095;BME280;50353;51.420;5.682;2022-08-19T12:00:42;101235.78;;;28.65;50.49
64095;BME280;50353;51.420;5.682;2022-08-19T12:03:10;101233.47;;;28.69;53.75
64095;BME280;50353;51.420;5.682;2022-08-19T12:05:37;101227.84;;;28.28;49.96
64095;BME280;50353;51.420;5.682;2022-08-19T12:08:03;101230.22;;;28.45;49.57
64095;BME280;50353;51.420;5.682;2022-08-19T12:10:28;101225.72;;;28.65;52.86
64095;BME280;50353;51.420;5.682;2022-08-19T12:12:53;101231.34;;;27.94;52.38
64095;BME280;50353;51.420;5.682;2022-08-19T12:15:19;101228.16;;;28.47;48.41
64095;BME280;50353;51.420;5.682;2022-08-19T12:17:44;101231.91;;;28.46;48.80
64095;BME280;50353;51.420;5.682;2022-08-19T12:20:11;101230.97;;;28.25;49.75
64095;BME280;50353;51.420;5.682;2022-08-19T12:22:39;101227.34;;;28.60;47.61
64095;BME280;50353;51.420;5.682;2022-08-19T12:25:07;101231.31;;;29.19;49.55
64095;BME280;50353;51.420;5.682;2022-08-19T12:27:33;101229.53;;;28.01;49.58
64095;BME280;50353;51.420;5.682;2022-08-19T12:30:00;101235.69;;;28.52;50.17
64095;BME280;50353;51.420;5.682;2022-08-19T12:32:26;101230.38;;;28.02;49.68
64095;BME280;50353;51.420;5.682;2022-08-19T12:34:52;101233.94;;;28.37;51.14
64095;BME280;50353;51.420;5.682;2022-08-19T12:37:17;101224.78;;;28.45;48.02
64095;BME280;50353;51.420;5.682;2022-08-19T12:39:43;101228.13;;;28.40;49.56
64095;BME280;50353;51.420;5.682;2022-08-19T12:42:11;101222.34;;;27.93;52.09
64095;BME280;50353;51.420;5.682;2022-08-19T12:44:38;101227.09;;;27.85;50.79
64095;BME280;50353;51.420;5.682;2022-08-19T12:47:05;101229.22;;;27.89;51.28
64095;BME280;50353;51.420;5.682;2022-08-19T12:49:31;101233.56;;;27.83;52.55
64095;BME280;50353;51.420;5.682;2022-08-19T12:51:59;101221.31;;;27.94;52.91
64095;BME280;50353;51.420;5.682;2022-08-19T12:54:25;101225.47;;;27.90;52.79
64095;BME280;50353;51.420;5.682;2022-08-19T12:56:50;101220.63;;;27.86;54.00